createdAt,value
2023-05-10T00:01:26.560Z,26.92
2023-05-10T00:03:53.322Z,27.52
2023-05-10T00:06:20.252Z,29.85
2023-05-10T00:08:46.895Z,26.27
2023-05-10T00:11:13.545Z,28.15
2023-05-10T00:13:40.282Z,28.60
2023-05-10T00:16:07.203Z,29.60
2023-05-10T00:18:33.954Z,27.50
2023-05-10T00:21:00.806Z,29.27
2023-05-10T00:23:27.366Z,30.15
2023-05-10T00:25:54.057Z,31.63
2023-05-10T00:28:20.695Z,30.42
2023-05-10T00:30:47.356Z,32.60
2023-05-10T00:33:13.983Z,29.30
2023-05-10T00:35:40.593Z,30.90
2023-05-10T00:38:07.494Z,29.95
2023-05-10T00:40:36.582Z,29.90
2023-05-10T00:43:03.963Z,38.15
2023-05-10T00:45:33.222Z,34.20
2023-05-10T00:48:03.203Z,28.73
2023-05-10T00:50:30.448Z,31.65
2023-05-10T00:52:57.588Z,29.88
2023-05-10T00:55:24.502Z,30.83
2023-05-10T00:57:51.375Z,27.00
2023-05-10T01:00:19.244Z,30.88
2023-05-10T01:02:47.432Z,31.40
2023-05-10T01:05:14.519Z,33.95
2023-05-10T01:07:42.030Z,29.92
2023-05-10T01:10:09.622Z,30.55
2023-05-10T01:12:39.356Z,32.78
2023-05-10T01:15:07.985Z,30.77
2023-05-10T01:17:37.202Z,31.08
2023-05-10T01:20:04.318Z,29.85
2023-05-10T01:22:34.014Z,35.25
2023-05-10T01:25:26.196Z,33.97
2023-05-10T01:28:01.716Z,34.88
2023-05-10T01:31:06.048Z,30.08
2023-05-10T01:33:59.883Z,36.03
2023-05-10T01:36:40.024Z,35.28
2023-05-10T01:39:09.669Z,34.78
2023-05-10T01:41:56.666Z,38.67
2023-05-10T01:44:36.477Z,42.05
2023-05-10T01:47:16.664Z,40.15
2023-05-10T01:49:48.616Z,40.55
2023-05-10T01:52:20.244Z,42.35
2023-05-10T01:54:59.274Z,41.80
2023-05-10T01:57:32.449Z,39.97
2023-05-10T02:00:01.883Z,41.05
2023-05-10T02:02:29.069Z,42.22
2023-05-10T02:04:57.652Z,38.45
2023-05-10T02:07:25.413Z,39.50
2023-05-10T02:09:52.655Z,43.90
2023-05-10T02:12:20.452Z,37.58
2023-05-10T02:14:48.491Z,44.85
2023-05-10T02:17:15.799Z,45.22
2023-05-10T02:19:44.012Z,47.33
2023-05-10T02:22:11.342Z,41.10
2023-05-10T02:24:39.379Z,45.20
2023-05-10T02:27:07.179Z,41.08
2023-05-10T02:29:34.542Z,47.00
2023-05-10T02:32:02.553Z,43.85
2023-05-10T02:34:29.606Z,47.40
2023-05-10T02:36:57.315Z,50.80
2023-05-10T02:39:25.643Z,53.47
2023-05-10T02:41:54.472Z,48.47
2023-05-10T02:44:21.553Z,51.88
2023-05-10T02:46:48.895Z,51.45
2023-05-10T02:49:16.509Z,44.00
2023-05-10T02:51:48.521Z,53.72
2023-05-10T02:54:20.975Z,47.97
2023-05-10T02:56:57.495Z,54.65
2023-05-10T02:59:24.311Z,46.97
2023-05-10T03:01:50.946Z,50.97
2023-05-10T03:04:17.605Z,48.78
2023-05-10T03:06:44.798Z,48.17
2023-05-10T03:09:13.478Z,47.25
2023-05-10T03:12:01.511Z,51.72
2023-05-10T03:14:46.321Z,56.40
2023-05-10T03:17:35.784Z,56.70
2023-05-10T03:20:11.016Z,50.72
2023-05-10T03:22:41.778Z,49.58
2023-05-10T03:25:12.491Z,52.83
2023-05-10T03:27:42.508Z,58.72
2023-05-10T03:30:11.050Z,48.78
2023-05-10T03:32:38.029Z,50.80
2023-05-10T03:35:12.630Z,51.85
2023-05-10T03:37:39.466Z,47.75
2023-05-10T03:40:07.091Z,50.33
2023-05-10T03:42:33.751Z,44.08
2023-05-10T03:45:00.352Z,51.47
2023-05-10T03:47:27.101Z,48.70
2023-05-10T03:49:55.881Z,42.80
2023-05-10T03:52:22.463Z,47.25
2023-05-10T03:54:49.097Z,45.70
2023-05-10T03:57:15.755Z,50.88
2023-05-10T03:59:42.348Z,42.78
2023-05-10T04:02:09.095Z,53.70
2023-05-10T04:04:35.754Z,55.60
2023-05-10T04:07:02.396Z,51.42
2023-05-10T04:09:29.025Z,45.53
2023-05-10T04:11:55.780Z,43.10
2023-05-10T04:14:22.395Z,48.38
2023-05-10T04:16:48.986Z,46.90
2023-05-10T04:19:15.657Z,43.53
2023-05-10T04:21:42.352Z,46.28
2023-05-10T04:24:09.010Z,39.55
2023-05-10T04:26:35.988Z,45.83
2023-05-10T04:29:03.436Z,49.80
2023-05-10T04:31:30.192Z,49.78
2023-05-10T04:33:56.824Z,52.25
2023-05-10T04:36:23.489Z,47.75
2023-05-10T04:38:50.122Z,54.15
2023-05-10T04:41:16.825Z,53.10
2023-05-10T04:43:43.463Z,55.40
2023-05-10T04:46:10.216Z,57.92
2023-05-10T04:48:36.947Z,55.22
2023-05-10T04:51:04.989Z,56.92
2023-05-10T04:53:31.776Z,56.63
2023-05-10T04:55:58.437Z,58.25
2023-05-10T04:58:25.940Z,52.47
2023-05-10T05:00:52.615Z,59.78
2023-05-10T05:03:20.036Z,61.10
2023-05-10T05:05:46.894Z,55.75
2023-05-10T05:08:14.125Z,61.53
2023-05-10T05:10:40.880Z,61.50
2023-05-10T05:13:07.491Z,60.55
2023-05-10T05:15:34.626Z,59.97
2023-05-10T05:18:01.367Z,55.53
2023-05-10T05:20:27.972Z,56.53
2023-05-10T05:22:54.627Z,63.53
2023-05-10T05:25:21.281Z,56.60
2023-05-10T05:27:47.950Z,55.38
2023-05-10T05:30:14.685Z,58.90
2023-05-10T05:32:41.495Z,62.30
2023-05-10T05:35:08.516Z,60.75
2023-05-10T05:37:35.195Z,64.03
2023-05-10T05:40:02.730Z,62.83
2023-05-10T05:42:29.407Z,63.90
2023-05-10T05:44:56.028Z,67.32
2023-05-10T05:47:22.631Z,68.28
2023-05-10T05:49:49.293Z,56.55
2023-05-10T05:52:15.935Z,60.20
2023-05-10T05:54:42.616Z,60.30
2023-05-10T05:57:09.885Z,48.70
2023-05-10T05:59:36.682Z,53.92
2023-05-10T06:02:03.381Z,62.60
2023-05-10T06:04:30.172Z,50.92
2023-05-10T06:06:57.107Z,50.65
2023-05-10T06:09:25.472Z,52.60
2023-05-10T06:11:52.130Z,47.20
2023-05-10T06:14:20.889Z,47.55
2023-05-10T06:16:47.681Z,50.15
2023-05-10T06:19:14.315Z,50.33
2023-05-10T06:21:40.934Z,46.08
2023-05-10T06:24:07.753Z,50.50
2023-05-10T06:26:34.813Z,44.85
2023-05-10T06:29:02.284Z,50.10
2023-05-10T06:31:29.010Z,46.15
2023-05-10T06:33:56.756Z,48.58
2023-05-10T06:36:25.567Z,49.85
2023-05-10T06:38:52.279Z,47.05
2023-05-10T06:41:18.966Z,49.92
2023-05-10T06:43:45.577Z,45.72
2023-05-10T06:46:12.222Z,45.92
2023-05-10T06:48:38.948Z,42.03
2023-05-10T06:51:05.540Z,43.53
2023-05-10T06:53:32.174Z,48.17
2023-05-10T06:55:58.958Z,39.10
2023-05-10T06:58:25.661Z,40.20
2023-05-10T07:00:52.363Z,35.55
2023-05-10T07:03:19.073Z,38.10
2023-05-10T07:05:48.040Z,36.80
2023-05-10T07:08:14.685Z,35.40
2023-05-10T07:10:41.315Z,33.50
2023-05-10T07:13:08.012Z,26.00
2023-05-10T07:15:34.745Z,33.35
2023-05-10T07:18:01.704Z,23.45
2023-05-10T07:20:28.526Z,22.23
2023-05-10T07:22:55.267Z,17.48
2023-05-10T07:25:21.936Z,13.65
2023-05-10T07:27:49.471Z,13.70
2023-05-10T07:30:16.177Z,14.43
2023-05-10T07:32:43.335Z,11.27
2023-05-10T07:35:09.999Z,12.32
2023-05-10T07:37:36.906Z,10.43
2023-05-10T07:40:03.643Z,13.35
2023-05-10T07:42:30.286Z,13.38
2023-05-10T07:44:56.919Z,12.00
2023-05-10T07:47:24.370Z,9.98
2023-05-10T07:49:51.085Z,14.32
2023-05-10T07:52:17.795Z,11.88
2023-05-10T07:54:45.539Z,9.90
2023-05-10T07:57:12.248Z,9.88
2023-05-10T07:59:38.946Z,9.88
2023-05-10T08:02:05.830Z,10.98
2023-05-10T08:04:32.634Z,11.23
2023-05-10T08:06:59.275Z,11.27
2023-05-10T08:09:25.940Z,13.07
2023-05-10T08:11:52.586Z,9.65
2023-05-10T08:14:19.376Z,11.10
2023-05-10T08:16:46.093Z,9.55
2023-05-10T08:19:12.870Z,11.40
2023-05-10T08:21:45.169Z,10.57
2023-05-10T08:24:11.831Z,9.95
2023-05-10T08:26:38.790Z,8.48
2023-05-10T08:29:05.532Z,13.23
2023-05-10T08:31:32.240Z,9.35
2023-05-10T08:33:58.896Z,15.20
2023-05-10T08:36:25.733Z,11.80
2023-05-10T08:38:53.188Z,11.13
2023-05-10T08:41:25.496Z,10.88
2023-05-10T08:43:53.679Z,12.75
2023-05-10T08:46:21.951Z,13.43
2023-05-10T08:48:50.221Z,13.48
2023-05-10T08:51:22.839Z,10.90
2023-05-10T08:53:49.544Z,13.15
2023-05-10T08:56:21.245Z,12.43
2023-05-10T08:58:48.348Z,10.27
2023-05-10T09:01:16.760Z,13.13
2023-05-10T09:03:44.150Z,10.60
2023-05-10T09:06:14.206Z,15.52
2023-05-10T09:08:43.685Z,12.38
2023-05-10T09:11:11.152Z,12.80
2023-05-10T09:13:38.028Z,10.20
2023-05-10T09:16:13.908Z,11.65
2023-05-10T09:18:47.870Z,9.63
2023-05-10T09:21:14.892Z,13.30
2023-05-10T09:23:46.137Z,10.52
2023-05-10T09:26:14.837Z,12.60
2023-05-10T09:28:51.466Z,13.63
2023-05-10T09:31:18.373Z,12.52
2023-05-10T09:33:46.876Z,12.48
2023-05-10T09:36:14.399Z,12.73
2023-05-10T09:38:48.929Z,14.73
2023-05-10T09:41:24.252Z,11.88
2023-05-10T09:43:51.407Z,11.93
2023-05-10T09:46:18.164Z,13.75
2023-05-10T09:48:47.305Z,12.27
2023-05-10T09:51:21.413Z,11.55
2023-05-10T09:53:48.504Z,10.15
2023-05-10T09:56:33.595Z,11.55
2023-05-10T09:59:04.501Z,10.50
2023-05-10T10:01:31.915Z,13.35
2023-05-10T10:03:59.257Z,10.73
2023-05-10T10:06:30.127Z,12.15
2023-05-10T10:08:57.549Z,12.40
2023-05-10T10:11:25.276Z,13.30
2023-05-10T10:16:51.811Z,9.65
2023-05-10T10:19:31.407Z,9.13
2023-05-10T10:21:58.162Z,10.38
2023-05-10T10:24:25.002Z,17.42
2023-05-10T10:26:56.417Z,8.70
2023-05-10T10:29:29.503Z,11.63
2023-05-10T10:32:12.028Z,9.55
2023-05-10T10:34:40.540Z,9.93
2023-05-10T10:37:07.871Z,7.95
2023-05-10T10:39:37.629Z,12.68
2023-05-10T10:42:06.171Z,10.68
2023-05-10T10:44:35.973Z,8.57
2023-05-10T10:47:10.908Z,10.95
2023-05-10T10:49:50.833Z,8.90
2023-05-10T10:52:30.924Z,10.75
2023-05-10T10:55:19.910Z,9.65
2023-05-10T10:57:48.050Z,8.45
2023-05-10T11:00:27.607Z,7.57
2023-05-10T11:02:59.748Z,10.68
2023-05-10T11:05:45.362Z,8.25
2023-05-10T11:08:17.240Z,8.30
2023-05-10T11:10:53.156Z,8.48
2023-05-10T11:13:31.619Z,5.90
2023-05-10T11:15:59.934Z,8.98
2023-05-10T11:18:29.585Z,7.97
2023-05-10T11:21:00.007Z,6.65
2023-05-10T11:23:48.256Z,7.78
2023-05-10T11:26:15.439Z,7.72
2023-05-10T11:28:49.776Z,5.45
2023-05-10T11:31:17.846Z,10.10
2023-05-10T11:33:46.214Z,6.47
2023-05-10T11:36:18.124Z,6.57
2023-05-10T11:38:45.558Z,8.52
2023-05-10T11:41:13.224Z,7.22
2023-05-10T11:43:41.078Z,6.65
2023-05-10T11:46:13.019Z,4.60
2023-05-10T11:48:41.017Z,7.63
2023-05-10T11:51:11.869Z,5.47
2023-05-10T11:53:39.114Z,6.18
2023-05-10T11:56:10.257Z,7.35
2023-05-10T11:58:38.424Z,6.40
2023-05-10T12:01:07.574Z,7.80
2023-05-10T12:03:35.264Z,5.85
2023-05-10T12:06:04.383Z,6.30
2023-05-10T12:08:34.645Z,5.72
2023-05-10T12:11:11.250Z,6.65
2023-05-10T12:13:43.482Z,6.53
2023-05-10T12:16:15.100Z,7.88
2023-05-10T12:18:43.464Z,8.98
2023-05-10T12:21:13.640Z,6.13
2023-05-10T12:23:40.863Z,4.70
2023-05-10T12:26:09.693Z,6.25
2023-05-10T12:28:36.840Z,5.20
2023-05-10T12:31:04.216Z,9.95
2023-05-10T12:33:44.865Z,8.30
2023-05-10T12:36:13.319Z,6.53
2023-05-10T12:38:43.868Z,8.88
2023-05-10T12:41:12.187Z,7.13
2023-05-10T12:43:40.319Z,4.90
2023-05-10T12:46:08.255Z,4.68
2023-05-10T12:48:35.603Z,4.10
2023-05-10T12:51:02.901Z,6.13
2023-05-10T12:53:29.629Z,3.97
2023-05-10T12:55:56.514Z,4.88
2023-05-10T12:58:35.001Z,4.75
2023-05-10T13:01:02.546Z,4.32
2023-05-10T13:03:29.223Z,4.22
2023-05-10T13:05:55.789Z,5.88
2023-05-10T13:08:22.437Z,4.65
2023-05-10T13:10:49.341Z,6.78
2023-05-10T13:13:16.648Z,5.18
2023-05-10T13:15:43.258Z,6.25
2023-05-10T13:18:09.857Z,6.22
2023-05-10T13:20:36.604Z,7.50
2023-05-10T13:23:03.660Z,7.82
2023-05-10T13:25:30.784Z,9.40
2023-05-10T13:27:57.345Z,10.23
2023-05-10T13:30:24.811Z,8.27
2023-05-10T13:32:51.462Z,9.27
2023-05-10T13:35:18.283Z,8.52
2023-05-10T13:37:44.942Z,7.68
2023-05-10T13:40:11.851Z,7.80
2023-05-10T13:42:38.759Z,9.50
2023-05-10T13:45:06.152Z,8.43
2023-05-10T13:47:32.980Z,9.43
2023-05-10T13:49:59.572Z,10.32
2023-05-10T13:52:26.903Z,7.85
2023-05-10T13:54:56.025Z,9.18
2023-05-10T13:57:23.067Z,10.32
2023-05-10T13:59:49.855Z,10.65
2023-05-10T14:02:16.552Z,11.82
2023-05-10T14:04:43.162Z,8.77
2023-05-10T14:07:09.728Z,8.45
2023-05-10T14:09:36.436Z,10.02
2023-05-10T14:12:03.098Z,9.77
2023-05-10T14:14:30.396Z,10.73
2023-05-10T14:16:57.484Z,9.27
2023-05-10T14:19:24.171Z,11.15
2023-05-10T14:21:50.804Z,10.82
2023-05-10T14:24:17.406Z,13.82
2023-05-10T14:26:43.951Z,12.05
2023-05-10T14:29:12.515Z,11.15
2023-05-10T14:31:39.547Z,15.93
2023-05-10T14:34:06.621Z,12.93
2023-05-10T14:36:33.493Z,11.52
2023-05-10T14:39:00.261Z,12.70
2023-05-10T14:41:26.901Z,12.27
2023-05-10T14:43:53.929Z,11.23
2023-05-10T14:46:20.775Z,12.75
2023-05-10T14:48:47.533Z,10.95
2023-05-10T14:51:14.467Z,11.82
2023-05-10T14:53:41.131Z,12.50
2023-05-10T14:56:08.174Z,11.07
2023-05-10T14:58:34.879Z,11.20
2023-05-10T15:01:01.772Z,12.95
2023-05-10T15:03:29.114Z,11.65
2023-05-10T15:05:58.400Z,14.38
2023-05-10T15:08:25.620Z,13.35
2023-05-10T15:10:52.750Z,12.65
2023-05-10T15:13:19.435Z,14.45
2023-05-10T15:15:46.033Z,12.13
2023-05-10T15:18:12.720Z,11.32
2023-05-10T15:20:39.503Z,11.80
2023-05-10T15:23:06.254Z,13.15
2023-05-10T15:25:35.655Z,12.85
2023-05-10T15:28:03.510Z,12.57
2023-05-10T15:30:30.377Z,11.27
2023-05-10T15:32:57.253Z,10.57
2023-05-10T15:35:23.873Z,9.65
2023-05-10T15:37:50.474Z,14.38
2023-05-10T15:40:17.194Z,11.20
2023-05-10T15:42:43.810Z,11.07
2023-05-10T15:45:11.732Z,8.18
2023-05-10T15:47:40.532Z,10.07
2023-05-10T15:50:08.372Z,10.40
2023-05-10T15:52:35.205Z,11.15
2023-05-10T15:55:01.918Z,11.10
2023-05-10T15:57:28.599Z,10.95
2023-05-10T15:59:56.272Z,12.30
2023-05-10T16:02:23.540Z,11.32
2023-05-10T16:04:50.261Z,11.45
2023-05-10T16:07:16.912Z,11.23
2023-05-10T16:09:43.968Z,10.82
2023-05-10T16:12:10.961Z,9.43
2023-05-10T16:14:37.674Z,10.73
2023-05-10T16:17:04.663Z,12.18
2023-05-10T16:19:31.814Z,10.23
2023-05-10T16:21:58.645Z,10.70
2023-05-10T16:24:26.114Z,9.32
2023-05-10T16:26:53.161Z,12.13
2023-05-10T16:29:19.789Z,9.48
2023-05-10T16:31:46.916Z,7.45
2023-05-10T16:34:13.575Z,10.82
2023-05-10T16:36:40.415Z,11.23
2023-05-10T16:39:07.392Z,11.55
2023-05-10T16:41:34.559Z,8.02
2023-05-10T16:44:04.338Z,12.07
2023-05-10T16:46:31.138Z,11.60
2023-05-10T16:48:59.729Z,12.35
2023-05-10T16:51:27.104Z,8.93
2023-05-10T16:53:53.991Z,11.18
2023-05-10T16:56:22.131Z,8.82
2023-05-10T16:58:54.060Z,10.50
2023-05-10T17:01:21.504Z,8.02
2023-05-10T17:03:49.167Z,9.18
2023-05-10T17:06:16.257Z,8.52
2023-05-10T17:08:43.323Z,10.20
2023-05-10T17:11:09.994Z,9.10
2023-05-10T17:13:36.639Z,11.60
2023-05-10T17:16:03.666Z,12.77
2023-05-10T17:18:30.821Z,10.48
2023-05-10T17:20:57.646Z,9.65
2023-05-10T17:23:24.335Z,10.63
2023-05-10T17:25:51.000Z,9.82
2023-05-10T17:28:17.630Z,9.23
2023-05-10T17:30:44.488Z,14.25
2023-05-10T17:33:11.188Z,10.77
2023-05-10T17:35:37.869Z,14.13
2023-05-10T17:38:04.534Z,11.02
2023-05-10T17:40:31.251Z,12.43
2023-05-10T17:42:57.896Z,11.80
2023-05-10T17:45:24.504Z,10.90
2023-05-10T17:47:51.175Z,10.15
2023-05-10T17:50:17.846Z,11.85
2023-05-10T17:52:44.454Z,12.30
2023-05-10T17:55:11.696Z,10.85
2023-05-10T17:57:38.686Z,10.60
2023-05-10T18:00:09.115Z,11.93
2023-05-10T18:02:36.824Z,9.70
2023-05-10T18:05:04.706Z,8.50
2023-05-10T18:07:31.575Z,13.55
2023-05-10T18:09:58.355Z,12.10
2023-05-10T18:12:25.253Z,9.48
2023-05-10T18:14:51.854Z,10.50
2023-05-10T18:17:19.700Z,12.10
2023-05-10T18:19:46.302Z,14.35
2023-05-10T18:22:12.996Z,8.77
2023-05-10T18:24:40.341Z,10.25
2023-05-10T18:27:08.815Z,9.88
2023-05-10T18:29:36.244Z,12.55
2023-05-10T18:32:02.961Z,12.27
2023-05-10T18:34:29.628Z,12.70
2023-05-10T18:36:56.398Z,10.18
2023-05-10T18:39:23.609Z,9.13
2023-05-10T18:41:50.328Z,11.40
2023-05-10T18:44:17.024Z,9.70
2023-05-10T18:46:43.711Z,10.45
2023-05-10T18:49:10.463Z,9.73
2023-05-10T18:51:38.358Z,10.15
2023-05-10T18:54:09.720Z,12.60
2023-05-10T18:56:36.875Z,10.77
2023-05-10T18:59:03.934Z,10.20
2023-05-10T19:01:30.996Z,11.88
2023-05-10T19:03:57.634Z,11.23
2023-05-10T19:06:24.263Z,10.98
2023-05-10T19:08:50.908Z,10.77
2023-05-10T19:11:17.831Z,10.90
2023-05-10T19:13:45.347Z,10.38
2023-05-10T19:16:14.258Z,9.60
2023-05-10T19:18:41.236Z,12.95
2023-05-10T19:21:09.880Z,10.95
2023-05-10T19:23:39.251Z,12.57
2023-05-10T19:26:06.484Z,12.10
2023-05-10T19:28:35.506Z,9.85
2023-05-10T19:31:03.143Z,11.18
2023-05-10T19:33:29.983Z,12.50
2023-05-10T19:35:56.653Z,11.57
2023-05-10T19:38:24.702Z,9.30
2023-05-10T19:40:57.878Z,11.77
2023-05-10T19:43:25.707Z,13.98
2023-05-10T19:45:52.614Z,11.00
2023-05-10T19:48:20.622Z,15.35
2023-05-10T19:50:48.592Z,13.55
2023-05-10T19:53:15.347Z,16.08
2023-05-10T19:55:42.119Z,13.35
2023-05-10T19:58:08.807Z,12.55
2023-05-10T20:00:35.779Z,14.32
2023-05-10T20:03:03.137Z,12.75
2023-05-10T20:05:29.855Z,11.07
2023-05-10T20:07:56.478Z,12.00
2023-05-10T20:10:25.211Z,10.18
2023-05-10T20:12:53.885Z,13.90
2023-05-10T20:15:22.825Z,10.82
2023-05-10T20:17:53.997Z,12.30
2023-05-10T20:20:21.471Z,9.82
2023-05-10T20:22:49.295Z,13.23
2023-05-10T20:25:17.307Z,9.40
2023-05-10T20:27:44.230Z,9.38
2023-05-10T20:30:11.483Z,11.50
2023-05-10T20:32:38.888Z,10.38
2023-05-10T20:35:07.075Z,10.32
2023-05-10T20:37:33.954Z,9.73
2023-05-10T20:40:00.804Z,10.70
2023-05-10T20:42:27.570Z,11.07
2023-05-10T20:44:54.236Z,15.13
2023-05-10T20:47:23.235Z,11.98
2023-05-10T20:49:50.732Z,11.52
2023-05-10T20:52:17.582Z,9.73
2023-05-10T20:54:44.212Z,11.77
2023-05-10T20:57:12.847Z,12.85
2023-05-10T20:59:39.475Z,13.50
2023-05-10T21:02:06.733Z,14.27
2023-05-10T21:04:33.461Z,12.85
